Time;durP1;ratioP1;P1;durP2;ratioP2;P2;SDS_P1;SDS_P2;PMS_P1;PMS_P2;Temp;Humidity;BMP_temperature;BMP_pressure;BME280_temperature;BME280_humidity;BME280_pressure;Samples;Min_cycle;Max_cycle;Signal;HPM_P1;HPM_P2
2023/10/31 00:01:43;;;;;;;3.40;1.50;;;;;;;;;;5113819;28;20421;-90
2023/10/31 00:04:09;;;;;;;4.20;1.40;;;;;;;;;;5117644;28;20493;-89
2023/10/31 00:06:35;;;;;;;2.47;1.40;;;;;;;;;;5117748;28;20437;-88
2023/10/31 00:09:01;;;;;;;5.30;2.33;;;;;;;;;;5117755;28;20172;-89
2023/10/31 00:11:27;;;;;;;3.30;1.23;;;;;;;;;;5117675;28;20815;-93
2023/10/31 00:13:53;;;;;;;3.07;1.50;;;;;;;;;;5117657;28;20408;-91
2023/10/31 00:16:18;;;;;;;3.97;1.47;;;;;;;;;;5100026;28;20173;-90
2023/10/31 00:18:44;;;;;;;4.57;1.97;;;;;;;;;;5099424;28;20640;-89
2023/10/31 00:21:10;;;;;;;4.63;2.30;;;;;;;;;;5117743;28;20881;-90
2023/10/31 00:23:43;;;;;;;5.57;1.80;;;;;;;;;;5099387;28;20420;-89
2023/10/31 00:26:09;;;;;;;7.30;2.60;;;;;;;;;;5117311;28;20475;-87
2023/10/31 00:28:35;;;;;;;3.20;1.47;;;;;;;;;;5098556;28;20417;-88
2023/10/31 00:31:03;;;;;;;5.87;1.87;;;;;;;;;;5117023;28;20872;-87
2023/10/31 00:33:29;;;;;;;5.90;2.77;;;;;;;;;;5098555;28;20417;-87
2023/10/31 00:35:55;;;;;;;8.83;2.00;;;;;;;;;;5116755;28;20416;-87
2023/10/31 00:38:21;;;;;;;3.83;1.70;;;;;;;;;;5098523;28;20518;-89
2023/10/31 00:40:47;;;;;;;4.40;2.40;;;;;;;;;;5116661;28;20413;-88
2023/10/31 00:43:13;;;;;;;4.23;2.00;;;;;;;;;;5098106;28;20239;-86
2023/10/31 00:45:39;;;;;;;3.67;1.80;;;;;;;;;;5098455;28;20468;-86
2023/10/31 00:48:05;;;;;;;4.77;1.80;;;;;;;;;;5110686;28;20158;-86
2023/10/31 00:50:31;;;;;;;6.07;2.40;;;;;;;;;;5119561;28;20232;-89
2023/10/31 00:52:57;;;;;;;7.17;2.27;;;;;;;;;;5118419;28;20492;-84
2023/10/31 00:55:23;;;;;;;3.83;1.47;;;;;;;;;;5100498;28;20565;-88
2023/10/31 00:57:48;;;;;;;5.53;2.57;;;;;;;;;;5116179;28;20747;-88
2023/10/31 01:00:15;;;;;;;5.03;2.10;;;;;;;;;;5098112;28;20423;-87
2023/10/31 01:02:41;;;;;;;4.10;1.57;;;;;;;;;;5098107;28;20635;-90
2023/10/31 01:05:07;;;;;;;2.60;1.90;;;;;;;;;;5116093;28;20475;-85
2023/10/31 01:07:33;;;;;;;3.93;2.57;;;;;;;;;;5116219;28;20862;-85
2023/10/31 01:09:59;;;;;;;4.37;2.30;;;;;;;;;;5097837;28;20580;-92
2023/10/31 01:12:27;;;;;;;2.87;2.03;;;;;;;;;;5115767;28;20164;-83
2023/10/31 01:14:53;;;;;;;7.83;2.27;;;;;;;;;;5096869;28;20462;-89
2023/10/31 01:17:19;;;;;;;5.00;2.40;;;;;;;;;;5115907;28;20819;-86
2023/10/31 01:19:45;;;;;;;4.07;2.43;;;;;;;;;;5116022;28;20414;-85
2023/10/31 01:22:11;;;;;;;2.87;1.43;;;;;;;;;;5097648;28;20790;-87
2023/10/31 01:24:37;;;;;;;5.23;2.27;;;;;;;;;;5115714;28;20278;-86
2023/10/31 01:27:03;;;;;;;4.37;1.90;;;;;;;;;;5097461;28;20424;-86
2023/10/31 01:29:29;;;;;;;5.87;2.23;;;;;;;;;;5115630;28;20413;-86
2023/10/31 01:31:55;;;;;;;6.50;2.17;;;;;;;;;;5097267;28;20410;-91
2023/10/31 01:34:24;;;;;;;3.00;1.63;;;;;;;;;;5097377;28;20418;-86
2023/10/31 01:36:50;;;;;;;5.93;2.00;;;;;;;;;;5115450;28;20172;-86
2023/10/31 01:39:16;;;;;;;4.93;2.77;;;;;;;;;;5115421;28;20505;-89
2023/10/31 01:41:42;;;;;;;5.40;2.27;;;;;;;;;;5115017;28;20438;-86
2023/10/31 01:44:08;;;;;;;4.90;1.90;;;;;;;;;;5115118;28;20236;-86
2023/10/31 01:46:34;;;;;;;3.77;2.13;;;;;;;;;;5115263;28;20417;-87
2023/10/31 01:49:00;;;;;;;4.67;2.10;;;;;;;;;;5115210;28;20397;-85
2023/10/31 01:51:26;;;;;;;4.77;2.60;;;;;;;;;;5115156;28;20207;-87
2023/10/31 01:53:53;;;;;;;4.43;1.73;;;;;;;;;;5096672;28;20469;-86
2023/10/31 01:56:19;;;;;;;5.67;2.50;;;;;;;;;;5114933;28;20500;-86
2023/10/31 01:58:46;;;;;;;3.97;1.73;;;;;;;;;;5114648;28;20483;-86
2023/10/31 02:01:12;;;;;;;3.93;1.93;;;;;;;;;;5115120;28;20438;-88
2023/10/31 02:03:38;;;;;;;4.70;2.50;;;;;;;;;;5096583;28;20465;-85
2023/10/31 02:06:05;;;;;;;5.40;2.30;;;;;;;;;;5114842;28;20422;-85
2023/10/31 02:08:30;;;;;;;3.10;2.17;;;;;;;;;;5114795;28;20406;-86
2023/10/31 02:10:56;;;;;;;5.60;2.43;;;;;;;;;;5096459;28;20794;-85
2023/10/31 02:13:23;;;;;;;4.20;2.57;;;;;;;;;;5096256;28;20573;-86
2023/10/31 02:15:49;;;;;;;3.30;2.27;;;;;;;;;;5130055;27;20429;-86
2023/10/31 02:18:15;;;;;;;4.67;2.50;;;;;;;;;;5135292;27;20754;-86
2023/10/31 02:20:41;;;;;;;5.40;2.50;;;;;;;;;;5135040;27;20408;-85
2023/10/31 02:23:07;;;;;;;5.47;1.70;;;;;;;;;;5132366;27;20421;-94
2023/10/31 02:25:33;;;;;;;5.20;2.67;;;;;;;;;;5118420;27;20868;-91
2023/10/31 02:27:59;;;;;;;3.50;2.27;;;;;;;;;;5122029;27;20236;-86
2023/10/31 02:30:25;;;;;;;4.53;2.10;;;;;;;;;;5135163;27;20506;-86
2023/10/31 02:32:51;;;;;;;7.47;2.70;;;;;;;;;;5116330;27;20516;-86
2023/10/31 02:35:18;;;;;;;8.83;2.53;;;;;;;;;;5134915;27;20412;-88
2023/10/31 02:37:44;;;;;;;6.30;3.00;;;;;;;;;;5116605;27;20424;-88
2023/10/31 02:40:11;;;;;;;6.70;2.23;;;;;;;;;;5135099;27;20417;-89
2023/10/31 02:42:37;;;;;;;6.90;2.80;;;;;;;;;;5134802;27;20417;-87
2023/10/31 02:45:03;;;;;;;5.00;1.67;;;;;;;;;;5135068;27;20507;-88
2023/10/31 02:47:29;;;;;;;4.17;2.47;;;;;;;;;;5134977;27;20412;-90
2023/10/31 02:49:55;;;;;;;4.60;2.43;;;;;;;;;;5135358;27;20409;-93
2023/10/31 02:52:21;;;;;;;5.53;3.33;;;;;;;;;;5135235;27;20411;-90
2023/10/31 02:54:47;;;;;;;7.90;3.00;;;;;;;;;;5138109;27;20227;-91
2023/10/31 02:57:13;;;;;;;5.37;2.73;;;;;;;;;;5137810;27;20163;-88
2023/10/31 02:59:39;;;;;;;4.63;2.70;;;;;;;;;;5136530;27;20478;-87
2023/10/31 03:02:05;;;;;;;5.70;3.00;;;;;;;;;;5134780;27;20405;-88
2023/10/31 03:04:31;;;;;;;9.40;3.60;;;;;;;;;;5136277;27;20217;-86
2023/10/31 03:06:57;;;;;;;5.63;3.03;;;;;;;;;;5116963;27;20954;-86
2023/10/31 03:09:23;;;;;;;5.77;3.70;;;;;;;;;;5118030;27;20181;-86
2023/10/31 03:11:48;;;;;;;4.50;3.30;;;;;;;;;;5116489;27;20505;-89
2023/10/31 03:14:14;;;;;;;5.50;4.20;;;;;;;;;;5116267;27;20171;-89
2023/10/31 03:16:40;;;;;;;4.93;2.70;;;;;;;;;;5134410;27;20532;-88
2023/10/31 03:19:06;;;;;;;6.67;3.40;;;;;;;;;;5134591;27;20250;-89
2023/10/31 03:21:32;;;;;;;7.40;3.80;;;;;;;;;;5134094;27;20409;-89
2023/10/31 03:23:58;;;;;;;10.00;4.93;;;;;;;;;;5115958;28;20471;-88
2023/10/31 03:26:24;;;;;;;8.23;4.47;;;;;;;;;;5115995;28;20945;-88
2023/10/31 03:28:50;;;;;;;6.10;4.63;;;;;;;;;;5134363;28;20492;-88
2023/10/31 03:31:16;;;;;;;6.90;4.87;;;;;;;;;;5134379;28;20173;-88
2023/10/31 03:33:42;;;;;;;5.53;3.80;;;;;;;;;;5115603;28;20179;-90
2023/10/31 03:36:08;;;;;;;7.40;4.23;;;;;;;;;;5134037;28;20409;-88
2023/10/31 03:38:37;;;;;;;4.70;3.27;;;;;;;;;;5137202;27;20451;-90
2023/10/31 03:41:03;;;;;;;8.53;3.90;;;;;;;;;;5138361;27;20492;-89
2023/10/31 03:43:29;;;;;;;7.10;4.00;;;;;;;;;;5137845;27;20440;-88
2023/10/31 03:45:55;;;;;;;6.33;4.03;;;;;;;;;;5119841;27;20886;-89
2023/10/31 03:48:21;;;;;;;5.97;3.97;;;;;;;;;;5119938;27;20249;-88
2023/10/31 03:50:47;;;;;;;5.97;3.80;;;;;;;;;;5138511;27;20425;-89
2023/10/31 03:53:13;;;;;;;7.53;4.40;;;;;;;;;;5138152;27;20405;-88
2023/10/31 03:55:39;;;;;;;6.53;4.23;;;;;;;;;;5119817;27;20469;-88
2023/10/31 03:58:05;;;;;;;4.60;3.93;;;;;;;;;;5137754;27;20486;-90
2023/10/31 04:00:31;;;;;;;5.53;3.53;;;;;;;;;;5120836;27;20561;-88
2023/10/31 04:02:57;;;;;;;7.87;3.90;;;;;;;;;;5138368;27;20495;-88
2023/10/31 04:05:23;;;;;;;6.43;3.67;;;;;;;;;;5137981;27;20210;-92
2023/10/31 04:07:49;;;;;;;4.67;3.90;;;;;;;;;;5119659;27;20639;-86
2023/10/31 04:10:15;;;;;;;6.70;3.37;;;;;;;;;;5138762;27;20436;-92
2023/10/31 04:12:41;;;;;;;4.43;3.60;;;;;;;;;;5137630;27;20756;-86
2023/10/31 04:15:08;;;;;;;5.43;4.10;;;;;;;;;;5119346;27;20424;-93
2023/10/31 04:17:34;;;;;;;4.83;4.00;;;;;;;;;;5137973;27;20406;-91
2023/10/31 04:20:00;;;;;;;8.13;4.10;;;;;;;;;;5116678;27;20880;-86
2023/10/31 04:22:26;;;;;;;7.10;3.43;;;;;;;;;;5133338;27;20492;-89
2023/10/31 04:24:52;;;;;;;6.90;4.23;;;;;;;;;;5137625;27;20456;-86
2023/10/31 04:27:18;;;;;;;3.23;2.80;;;;;;;;;;5137129;27;20773;-90
2023/10/31 04:29:44;;;;;;;7.27;4.03;;;;;;;;;;5137380;27;20742;-86
2023/10/31 04:32:10;;;;;;;4.83;3.60;;;;;;;;;;5118761;27;20918;-89
2023/10/31 04:34:36;;;;;;;5.97;3.40;;;;;;;;;;5137202;27;20449;-86
2023/10/31 04:37:02;;;;;;;4.50;3.77;;;;;;;;;;5118991;27;20179;-86
2023/10/31 04:39:28;;;;;;;5.13;4.33;;;;;;;;;;5137179;27;20401;-87
2023/10/31 04:41:54;;;;;;;5.53;4.63;;;;;;;;;;5136626;27;20419;-87
2023/10/31 04:44:20;;;;;;;6.00;3.97;;;;;;;;;;5137344;27;20497;-86
2023/10/31 04:46:46;;;;;;;6.80;4.43;;;;;;;;;;5136885;27;20415;-91
2023/10/31 04:49:12;;;;;;;6.17;4.87;;;;;;;;;;5117427;27;20435;-87
2023/10/31 04:51:38;;;;;;;6.00;4.17;;;;;;;;;;5137012;27;20409;-86
2023/10/31 04:54:04;;;;;;;6.67;4.53;;;;;;;;;;5118000;27;20579;-87
2023/10/31 04:56:30;;;;;;;6.00;3.47;;;;;;;;;;5117943;27;20429;-87
2023/10/31 04:58:56;;;;;;;6.50;5.07;;;;;;;;;;5118321;27;20413;-87
2023/10/31 05:01:22;;;;;;;4.90;4.40;;;;;;;;;;5136328;27;20420;-88
2023/10/31 05:03:48;;;;;;;5.80;4.43;;;;;;;;;;5136416;27;20460;-88
2023/10/31 05:06:19;;;;;;;10.57;4.37;;;;;;;;;;5136484;27;20442;-87
2023/10/31 05:08:45;;;;;;;5.90;4.90;;;;;;;;;;5136263;27;20413;-87
2023/10/31 05:11:11;;;;;;;5.03;4.40;;;;;;;;;;5135879;27;20413;-89
2023/10/31 05:13:36;;;;;;;8.67;4.60;;;;;;;;;;5117738;27;20170;-87
2023/10/31 05:16:03;;;;;;;7.73;4.37;;;;;;;;;;5136015;27;20168;-86
2023/10/31 05:18:28;;;;;;;4.50;4.07;;;;;;;;;;5135955;27;20269;-86
2023/10/31 05:20:54;;;;;;;8.73;4.23;;;;;;;;;;5136012;27;20860;-89
2023/10/31 05:23:20;;;;;;;8.27;3.87;;;;;;;;;;5117275;27;20180;-87
2023/10/31 05:25:46;;;;;;;6.00;3.77;;;;;;;;;;5117484;27;20216;-87
2023/10/31 05:28:12;;;;;;;5.93;4.30;;;;;;;;;;5135541;27;20173;-87
2023/10/31 05:30:38;;;;;;;5.97;5.00;;;;;;;;;;5135617;27;20507;-87
2023/10/31 05:33:04;;;;;;;5.13;4.63;;;;;;;;;;5135847;27;20174;-86
2023/10/31 05:35:30;;;;;;;7.43;4.73;;;;;;;;;;5135719;27;20410;-86
2023/10/31 05:37:56;;;;;;;6.03;4.70;;;;;;;;;;5135717;27;20177;-86
2023/10/31 05:40:27;;;;;;;6.90;4.77;;;;;;;;;;5135733;27;20173;-90
2023/10/31 05:42:53;;;;;;;9.00;4.73;;;;;;;;;;5117230;27;20173;-88
2023/10/31 05:45:19;;;;;;;9.07;4.80;;;;;;;;;;5135551;27;20466;-87
2023/10/31 05:47:45;;;;;;;6.57;4.90;;;;;;;;;;5135608;27;20502;-85
2023/10/31 05:50:10;;;;;;;7.43;6.33;;;;;;;;;;5117016;27;20415;-89
2023/10/31 05:52:36;;;;;;;7.87;6.00;;;;;;;;;;5135434;27;20172;-87
2023/10/31 05:55:02;;;;;;;8.33;5.50;;;;;;;;;;5135336;27;20915;-88
2023/10/31 05:57:28;;;;;;;8.50;5.80;;;;;;;;;;5134898;27;20407;-87
2023/10/31 05:59:54;;;;;;;10.70;6.80;;;;;;;;;;5134966;27;20483;-88
2023/10/31 06:02:20;;;;;;;9.50;7.70;;;;;;;;;;5116741;27;20171;-85
2023/10/31 06:04:46;;;;;;;9.87;7.40;;;;;;;;;;5134857;27;20473;-85
2023/10/31 06:07:12;;;;;;;8.30;6.83;;;;;;;;;;5134814;27;20186;-84
2023/10/31 06:09:38;;;;;;;7.00;5.80;;;;;;;;;;5134891;27;20411;-85
2023/10/31 06:12:05;;;;;;;10.50;7.13;;;;;;;;;;5134446;27;20405;-85
2023/10/31 06:14:31;;;;;;;7.53;6.77;;;;;;;;;;5134818;27;20670;-85
2023/10/31 06:16:59;;;;;;;7.87;6.57;;;;;;;;;;5134772;27;20428;-84
2023/10/31 06:19:25;;;;;;;8.07;6.70;;;;;;;;;;5116383;27;20428;-85
2023/10/31 06:21:51;;;;;;;7.00;5.73;;;;;;;;;;5134644;27;20414;-85
2023/10/31 06:24:17;;;;;;;9.43;7.07;;;;;;;;;;5134577;27;20464;-86
2023/10/31 06:26:43;;;;;;;7.80;6.20;;;;;;;;;;5134194;27;20172;-86
2023/10/31 06:29:09;;;;;;;7.47;6.57;;;;;;;;;;5116180;27;20477;-86
2023/10/31 06:31:35;;;;;;;7.27;6.30;;;;;;;;;;5134249;27;20184;-86
2023/10/31 06:34:01;;;;;;;8.77;5.70;;;;;;;;;;5134056;27;20405;-85
2023/10/31 06:36:27;;;;;;;9.73;7.17;;;;;;;;;;5116045;27;20421;-85
2023/10/31 06:38:53;;;;;;;7.90;5.20;;;;;;;;;;5134366;27;20171;-88
2023/10/31 06:41:19;;;;;;;6.13;5.53;;;;;;;;;;5116241;27;20984;-89
2023/10/31 06:43:45;;;;;;;5.60;4.47;;;;;;;;;;5134769;27;20778;-88
2023/10/31 06:46:10;;;;;;;4.43;3.63;;;;;;;;;;5135394;27;20418;-90
2023/10/31 06:48:36;;;;;;;4.20;3.13;;;;;;;;;;5117619;27;20410;-90
2023/10/31 06:51:02;;;;;;;3.07;1.37;;;;;;;;;;5135020;27;20171;-88
2023/10/31 06:53:28;;;;;;;2.07;1.07;;;;;;;;;;5134155;27;21003;-88
2023/10/31 06:55:54;;;;;;;0.80;0.23;;;;;;;;;;5134193;27;20503;-88
2023/10/31 06:58:20;;;;;;;2.03;0.30;;;;;;;;;;5135142;27;20509;-89
2023/10/31 07:00:46;;;;;;;2.03;0.40;;;;;;;;;;5134386;27;20675;-85
2023/10/31 07:03:14;;;;;;;1.20;0.27;;;;;;;;;;5134357;27;20224;-88
2023/10/31 07:05:40;;;;;;;1.10;0.40;;;;;;;;;;5115789;27;20215;-90
2023/10/31 07:08:06;;;;;;;0.90;0.53;;;;;;;;;;5116230;27;20407;-88
2023/10/31 07:10:33;;;;;;;1.50;0.50;;;;;;;;;;5114876;27;20428;-87
2023/10/31 07:12:59;;;;;;;2.20;0.67;;;;;;;;;;5133382;27;20194;-91
2023/10/31 07:15:28;;;;;;;1.73;0.93;;;;;;;;;;5134805;27;20911;-86
2023/10/31 07:17:54;;;;;;;2.50;1.43;;;;;;;;;;5133644;27;20920;-87
2023/10/31 07:20:20;;;;;;;2.87;1.10;;;;;;;;;;5133718;27;20420;-88
2023/10/31 07:22:45;;;;;;;3.70;1.37;;;;;;;;;;5133614;27;20440;-82
2023/10/31 07:25:11;;;;;;;5.77;4.03;;;;;;;;;;5133520;27;20476;-85
2023/10/31 07:27:37;;;;;;;5.53;3.40;;;;;;;;;;5115104;28;20416;-84
2023/10/31 07:30:05;;;;;;;5.50;3.67;;;;;;;;;;5116364;22;20493;-85
2023/10/31 07:32:31;;;;;;;6.60;4.40;;;;;;;;;;5112902;28;20406;-85
2023/10/31 07:34:57;;;;;;;8.60;5.40;;;;;;;;;;5113146;28;20457;-87
2023/10/31 07:37:23;;;;;;;10.07;6.20;;;;;;;;;;5095118;28;20435;-86
2023/10/31 07:39:50;;;;;;;10.10;5.80;;;;;;;;;;5112886;28;20178;-89
2023/10/31 07:42:16;;;;;;;7.70;5.70;;;;;;;;;;5094274;28;20189;-87
2023/10/31 07:44:42;;;;;;;7.67;5.57;;;;;;;;;;5112958;28;20957;-85
2023/10/31 07:47:08;;;;;;;7.60;5.37;;;;;;;;;;5113100;28;20401;-85
2023/10/31 07:49:34;;;;;;;5.80;3.90;;;;;;;;;;5112518;28;20968;-86
2023/10/31 07:52:00;;;;;;;8.23;3.40;;;;;;;;;;5112271;28;20413;-85
2023/10/31 07:54:26;;;;;;;5.60;3.03;;;;;;;;;;5094652;28;20934;-91
2023/10/31 07:56:53;;;;;;;7.00;1.10;;;;;;;;;;5094453;28;20790;-87
2023/10/31 07:59:19;;;;;;;1.90;0.50;;;;;;;;;;5112952;28;20503;-87
2023/10/31 08:01:45;;;;;;;2.00;0.20;;;;;;;;;;5094753;28;20478;-87
2023/10/31 08:04:11;;;;;;;1.40;0.30;;;;;;;;;;5112885;28;20204;-87
2023/10/31 08:06:36;;;;;;;0.80;0.20;;;;;;;;;;5112934;28;20491;-89
2023/10/31 08:09:03;;;;;;;0.40;0.10;;;;;;;;;;5113000;28;20445;-85
2023/10/31 08:11:29;;;;;;;0.90;0.20;;;;;;;;;;5112433;28;20175;-84
2023/10/31 08:13:55;;;;;;;0.77;0.20;;;;;;;;;;5112578;28;20412;-86
2023/10/31 08:16:20;;;;;;;0.73;0.23;;;;;;;;;;5094389;28;20912;-88
2023/10/31 08:18:47;;;;;;;1.27;0.20;;;;;;;;;;5094436;28;20525;-84
2023/10/31 08:21:13;;;;;;;1.40;0.20;;;;;;;;;;5112809;28;20394;-85
2023/10/31 08:23:39;;;;;;;0.50;0.20;;;;;;;;;;5094990;28;20420;-83
2023/10/31 08:26:05;;;;;;;1.07;0.20;;;;;;;;;;5116127;28;20470;-85
2023/10/31 08:28:31;;;;;;;0.53;0.20;;;;;;;;;;5098407;28;20923;-84
2023/10/31 08:30:57;;;;;;;0.70;0.20;;;;;;;;;;5094826;28;20543;-84
2023/10/31 08:33:23;;;;;;;0.30;0.20;;;;;;;;;;5095296;28;20409;-83
2023/10/31 08:35:55;;;;;;;0.50;0.20;;;;;;;;;;5096143;28;20413;-83
2023/10/31 08:38:21;;;;;;;1.23;0.20;;;;;;;;;;5059695;28;20424;-85
2023/10/31 08:40:48;;;;;;;0.40;0.20;;;;;;;;;;5053538;28;20753;-84
2023/10/31 08:43:14;;;;;;;0.40;0.20;;;;;;;;;;5052922;28;20181;-85
2023/10/31 08:45:40;;;;;;;0.30;0.20;;;;;;;;;;5055570;28;20475;-84
2023/10/31 08:48:06;;;;;;;0.70;0.20;;;;;;;;;;5055656;28;20407;-84
2023/10/31 08:50:32;;;;;;;0.30;0.10;;;;;;;;;;5055959;28;20473;-84
2023/10/31 08:52:58;;;;;;;0.30;0.20;;;;;;;;;;5055702;28;20414;-84
2023/10/31 08:55:24;;;;;;;0.73;0.20;;;;;;;;;;5055281;28;20418;-84
2023/10/31 08:57:52;;;;;;;0.40;0.20;;;;;;;;;;5054235;28;20420;-85
2023/10/31 09:00:18;;;;;;;1.17;0.20;;;;;;;;;;5055410;28;20412;-84
2023/10/31 09:02:44;;;;;;;0.37;0.10;;;;;;;;;;5054179;28;20506;-85
2023/10/31 09:05:10;;;;;;;0.50;0.20;;;;;;;;;;5055219;28;20495;-86
2023/10/31 09:07:35;;;;;;;0.90;0.10;;;;;;;;;;5055360;28;20435;-84
2023/10/31 09:10:01;;;;;;;0.30;0.20;;;;;;;;;;5055563;28;20176;-85
2023/10/31 09:12:29;;;;;;;0.90;0.20;;;;;;;;;;5054908;28;20404;-86
2023/10/31 09:14:55;;;;;;;0.93;0.20;;;;;;;;;;5055248;28;20509;-84
2023/10/31 09:17:21;;;;;;;0.50;0.10;;;;;;;;;;5055008;28;20518;-83
2023/10/31 09:19:46;;;;;;;0.40;0.20;;;;;;;;;;5054982;28;20916;-83
2023/10/31 09:22:12;;;;;;;0.50;0.20;;;;;;;;;;5055099;28;20172;-83
2023/10/31 09:24:40;;;;;;;0.30;0.20;;;;;;;;;;5054921;28;20661;-83
2023/10/31 09:27:06;;;;;;;0.40;0.20;;;;;;;;;;5054884;28;20464;-86
2023/10/31 09:29:31;;;;;;;0.60;0.10;;;;;;;;;;5062584;28;20966;-87
2023/10/31 09:31:58;;;;;;;0.30;0.10;;;;;;;;;;5091193;28;20191;-83
2023/10/31 09:34:24;;;;;;;0.60;0.20;;;;;;;;;;5095007;28;20250;-82
2023/10/31 09:36:50;;;;;;;0.57;0.20;;;;;;;;;;5094456;28;20888;-85
2023/10/31 09:39:16;;;;;;;0.73;0.20;;;;;;;;;;5094800;28;20771;-85
2023/10/31 09:41:42;;;;;;;1.90;0.30;;;;;;;;;;5094489;28;20461;-84
2023/10/31 09:44:08;;;;;;;0.30;0.10;;;;;;;;;;5094799;28;20168;-84
2023/10/31 09:46:35;;;;;;;0.60;0.10;;;;;;;;;;5094882;28;20172;-85
2023/10/31 09:49:01;;;;;;;1.10;0.20;;;;;;;;;;5076590;28;20453;-83
2023/10/31 09:51:28;;;;;;;0.50;0.20;;;;;;;;;;5094723;28;20453;-83
2023/10/31 09:53:55;;;;;;;0.67;0.20;;;;;;;;;;5094591;28;20436;-84
2023/10/31 09:56:22;;;;;;;2.70;0.20;;;;;;;;;;5094246;28;20912;-84
2023/10/31 09:58:48;;;;;;;0.97;0.20;;;;;;;;;;5076398;28;20468;-83
2023/10/31 10:01:14;;;;;;;0.83;0.20;;;;;;;;;;5094254;28;20532;-83
2023/10/31 10:03:40;;;;;;;0.30;0.20;;;;;;;;;;5094577;28;20443;-81
2023/10/31 10:06:07;;;;;;;1.10;0.20;;;;;;;;;;5094329;28;20468;-83
2023/10/31 10:08:36;;;;;;;0.67;0.20;;;;;;;;;;5094350;28;20415;-82
2023/10/31 10:11:02;;;;;;;2.47;0.27;;;;;;;;;;5094002;28;20832;-81
2023/10/31 10:13:28;;;;;;;0.60;0.20;;;;;;;;;;5076134;28;20428;-81
2023/10/31 10:15:55;;;;;;;1.47;0.30;;;;;;;;;;5075923;28;20413;-83
2023/10/31 10:18:30;;;;;;;0.40;0.20;;;;;;;;;;5094213;28;20562;-84
2023/10/31 10:20:57;;;;;;;1.30;0.40;;;;;;;;;;5075831;28;20419;-84
2023/10/31 10:23:24;;;;;;;2.77;0.40;;;;;;;;;;5094603;28;20422;-85
2023/10/31 10:25:50;;;;;;;2.10;0.30;;;;;;;;;;5093856;28;20474;-85
2023/10/31 10:28:16;;;;;;;1.33;0.20;;;;;;;;;;5107156;28;20485;-86
2023/10/31 10:30:42;;;;;;;1.13;0.20;;;;;;;;;;5093959;28;20475;-84
2023/10/31 10:33:08;;;;;;;1.60;0.20;;;;;;;;;;5094026;28;20768;-85
2023/10/31 10:35:34;;;;;;;2.47;0.50;;;;;;;;;;5093830;28;20222;-86
2023/10/31 10:38:02;;;;;;;1.73;0.40;;;;;;;;;;5093416;28;20477;-86
2023/10/31 10:40:27;;;;;;;1.23;0.47;;;;;;;;;;5093126;28;20473;-90
2023/10/31 10:42:57;;;;;;;2.13;0.40;;;;;;;;;;5092428;28;20429;-85
2023/10/31 10:45:24;;;;;;;1.97;0.20;;;;;;;;;;5093306;28;20476;-85
2023/10/31 10:47:50;;;;;;;1.90;0.70;;;;;;;;;;5092191;28;20413;-84
2023/10/31 10:50:20;;;;;;;1.30;0.60;;;;;;;;;;5093245;28;20456;-82
2023/10/31 10:52:50;;;;;;;1.40;0.43;;;;;;;;;;5091005;28;20405;-86
2023/10/31 10:55:25;;;;;;;2.40;0.20;;;;;;;;;;5092950;28;20490;-86
2023/10/31 10:57:56;;;;;;;0.87;0.30;;;;;;;;;;5093561;28;20423;-86
2023/10/31 11:00:24;;;;;;;2.17;0.57;;;;;;;;;;5093549;28;20408;-85
2023/10/31 11:02:52;;;;;;;0.90;0.20;;;;;;;;;;5075371;28;20476;-83
2023/10/31 11:05:18;;;;;;;0.90;0.30;;;;;;;;;;5075161;28;20595;-85
2023/10/31 11:07:45;;;;;;;1.27;0.20;;;;;;;;;;5089939;28;20858;-85
2023/10/31 11:10:10;;;;;;;2.20;0.33;;;;;;;;;;5089135;28;20444;-91
2023/10/31 11:12:38;;;;;;;0.60;0.20;;;;;;;;;;5084419;28;20927;-88
2023/10/31 11:15:06;;;;;;;1.27;0.23;;;;;;;;;;5091266;28;20421;-87
2023/10/31 11:17:34;;;;;;;0.83;0.30;;;;;;;;;;5093048;28;20463;-89
2023/10/31 11:20:00;;;;;;;1.50;0.30;;;;;;;;;;5089924;28;20434;-84
2023/10/31 11:22:26;;;;;;;1.47;0.40;;;;;;;;;;5074639;28;20779;-85
2023/10/31 11:24:52;;;;;;;1.27;0.20;;;;;;;;;;5092687;28;20457;-85
2023/10/31 11:27:18;;;;;;;0.50;0.20;;;;;;;;;;5087218;28;20434;-81
2023/10/31 11:29:44;;;;;;;0.90;0.20;;;;;;;;;;5079131;28;20814;-85
2023/10/31 11:32:15;;;;;;;3.80;0.20;;;;;;;;;;5101885;28;20426;-87
2023/10/31 11:34:42;;;;;;;2.60;0.20;;;;;;;;;;5073237;28;20427;-85
2023/10/31 11:37:27;;;;;;;0.80;0.30;;;;;;;;;;5077759;28;20953;-87
2023/10/31 11:40:12;;;;;;;0.47;0.20;;;;;;;;;;5074765;28;20500;-87
2023/10/31 11:42:38;;;;;;;0.90;0.20;;;;;;;;;;5080888;28;20413;-87
2023/10/31 11:45:04;;;;;;;0.50;0.20;;;;;;;;;;5094219;28;20564;-88
2023/10/31 11:47:51;;;;;;;3.63;0.30;;;;;;;;;;5112911;28;20170;-86
2023/10/31 11:50:17;;;;;;;0.50;0.20;;;;;;;;;;5113308;28;20425;-87
2023/10/31 11:52:44;;;;;;;0.90;0.40;;;;;;;;;;5076276;28;20498;-88
2023/10/31 11:55:10;;;;;;;2.37;0.40;;;;;;;;;;5092662;28;20414;-89
2023/10/31 11:57:37;;;;;;;1.07;0.40;;;;;;;;;;5092920;28;20946;-88
2023/10/31 12:00:03;;;;;;;2.93;0.30;;;;;;;;;;5096347;28;20410;-88
2023/10/31 12:02:30;;;;;;;1.20;0.33;;;;;;;;;;5078812;28;20809;-87
2023/10/31 12:05:22;;;;;;;0.97;0.30;;;;;;;;;;5096849;28;20503;-87
2023/10/31 12:07:47;;;;;;;0.60;0.30;;;;;;;;;;5075455;28;20857;-87
2023/10/31 12:10:13;;;;;;;0.63;0.20;;;;;;;;;;5078262;28;20460;-87
2023/10/31 12:12:39;;;;;;;1.43;0.20;;;;;;;;;;5096646;28;20410;-87
2023/10/31 12:15:09;;;;;;;1.50;0.20;;;;;;;;;;5096552;28;20398;-87
2023/10/31 12:17:35;;;;;;;1.20;0.20;;;;;;;;;;5078291;28;20222;-88
2023/10/31 12:20:04;;;;;;;1.17;0.20;;;;;;;;;;5096462;28;20413;-88
2023/10/31 12:22:30;;;;;;;1.20;0.30;;;;;;;;;;5096084;28;20426;-88
2023/10/31 12:25:03;;;;;;;2.10;0.20;;;;;;;;;;5076166;28;20470;-87
2023/10/31 12:27:45;;;;;;;0.63;0.20;;;;;;;;;;5061304;28;20467;-86
2023/10/31 12:30:12;;;;;;;0.90;0.30;;;;;;;;;;5075424;28;20570;-87
2023/10/31 12:32:38;;;;;;;1.70;0.30;;;;;;;;;;5057822;28;20437;-88
2023/10/31 12:35:04;;;;;;;1.43;0.20;;;;;;;;;;5057575;28;20417;-87
2023/10/31 12:37:31;;;;;;;1.33;0.33;;;;;;;;;;5075436;28;20404;-88
2023/10/31 12:39:58;;;;;;;1.07;0.20;;;;;;;;;;5088654;28;20784;-89
2023/10/31 12:42:29;;;;;;;0.50;0.20;;;;;;;;;;5103480;28;20406;-87
2023/10/31 12:44:55;;;;;;;1.20;0.10;;;;;;;;;;5116130;28;20826;-87
2023/10/31 12:47:24;;;;;;;0.90;0.20;;;;;;;;;;5115997;28;20493;-87
2023/10/31 12:50:05;;;;;;;2.97;0.30;;;;;;;;;;5115891;28;20417;-87
2023/10/31 12:52:45;;;;;;;1.17;0.20;;;;;;;;;;5115976;28;20418;-86
2023/10/31 12:55:13;;;;;;;1.93;0.50;;;;;;;;;;5115625;28;20445;-87
2023/10/31 12:57:39;;;;;;;0.60;0.20;;;;;;;;;;5097876;28;20413;-86
2023/10/31 13:00:09;;;;;;;3.53;0.30;;;;;;;;;;5097694;28;20474;-87
2023/10/31 13:02:35;;;;;;;3.53;0.30;;;;;;;;;;5115298;28;20432;-88
2023/10/31 13:05:17;;;;;;;1.27;0.30;;;;;;;;;;5097404;28;20865;-87
2023/10/31 13:07:49;;;;;;;0.87;0.20;;;;;;;;;;5097422;28;20505;-87
2023/10/31 13:10:16;;;;;;;0.90;0.20;;;;;;;;;;5114230;28;20411;-89
2023/10/31 13:12:46;;;;;;;1.03;0.30;;;;;;;;;;5097334;28;20422;-87
2023/10/31 13:15:12;;;;;;;1.37;0.33;;;;;;;;;;5115579;28;20985;-88
2023/10/31 13:17:38;;;;;;;1.43;0.20;;;;;;;;;;5115614;28;20407;-88
2023/10/31 13:20:06;;;;;;;1.37;0.40;;;;;;;;;;5115218;28;20443;-87
2023/10/31 13:22:32;;;;;;;2.20;0.30;;;;;;;;;;5115398;28;20418;-88
2023/10/31 13:24:58;;;;;;;4.27;0.53;;;;;;;;;;5115167;28;20937;-88
2023/10/31 13:27:24;;;;;;;1.73;0.20;;;;;;;;;;5115446;28;20489;-89
2023/10/31 13:29:50;;;;;;;1.43;0.20;;;;;;;;;;5114994;28;20549;-86
2023/10/31 13:32:16;;;;;;;2.00;0.30;;;;;;;;;;5115209;28;20172;-88
2023/10/31 13:34:42;;;;;;;1.27;0.20;;;;;;;;;;5102435;28;20183;-90
2023/10/31 13:37:08;;;;;;;0.70;0.20;;;;;;;;;;5094198;28;20487;-87
2023/10/31 13:39:36;;;;;;;1.03;0.20;;;;;;;;;;5091336;28;20589;-86
2023/10/31 13:42:02;;;;;;;0.83;0.20;;;;;;;;;;5091300;28;20915;-88
2023/10/31 13:44:29;;;;;;;1.63;0.20;;;;;;;;;;5094313;28;20458;-87
2023/10/31 13:46:55;;;;;;;1.60;0.23;;;;;;;;;;5075874;28;20910;-87
2023/10/31 13:49:20;;;;;;;2.87;0.20;;;;;;;;;;5094067;28;20421;-88
2023/10/31 13:51:48;;;;;;;0.53;0.10;;;;;;;;;;5075938;28;20180;-89
2023/10/31 13:54:14;;;;;;;1.40;0.20;;;;;;;;;;5076044;28;20640;-87
2023/10/31 13:56:40;;;;;;;0.50;0.30;;;;;;;;;;5075618;28;20432;-87
2023/10/31 13:59:06;;;;;;;2.00;0.20;;;;;;;;;;5094184;28;20466;-87
2023/10/31 14:01:32;;;;;;;0.43;0.20;;;;;;;;;;5094057;28;20438;-88
2023/10/31 14:03:58;;;;;;;1.00;0.20;;;;;;;;;;5076118;28;20404;-87
2023/10/31 14:06:29;;;;;;;1.40;0.30;;;;;;;;;;5094101;28;20218;-86
2023/10/31 14:08:55;;;;;;;3.33;1.00;;;;;;;;;;5075686;28;20418;-89
2023/10/31 14:11:22;;;;;;;4.90;1.50;;;;;;;;;;5083301;28;20422;-89
2023/10/31 14:13:48;;;;;;;2.50;0.80;;;;;;;;;;5076319;28;20192;-88
2023/10/31 14:16:14;;;;;;;1.57;0.63;;;;;;;;;;5073641;28;20789;-88
2023/10/31 14:18:42;;;;;;;2.10;1.43;;;;;;;;;;5073110;28;20418;-89
2023/10/31 14:21:08;;;;;;;2.77;0.73;;;;;;;;;;5073943;28;20407;-89
2023/10/31 14:23:34;;;;;;;4.53;0.73;;;;;;;;;;5089871;28;20902;-88
2023/10/31 14:26:00;;;;;;;1.90;0.60;;;;;;;;;;5087960;28;20500;-88
2023/10/31 14:28:26;;;;;;;2.30;0.73;;;;;;;;;;5074210;28;20187;-89
2023/10/31 14:30:52;;;;;;;1.70;0.37;;;;;;;;;;5073939;28;20459;-89
2023/10/31 14:33:18;;;;;;;1.83;0.27;;;;;;;;;;5073974;28;20432;-88
2023/10/31 14:35:44;;;;;;;2.22;0.40;;;;;;;;;;5073008;28;20743;-88
2023/10/31 14:38:10;;;;;;;1.07;0.30;;;;;;;;;;5073787;28;20167;-88
2023/10/31 14:40:36;;;;;;;1.37;0.30;;;;;;;;;;5073408;28;20409;-90